createdAt,value
2022-08-16T00:00:22.131Z,74201.00
2022-08-16T00:02:53.139Z,74196.94
2022-08-16T00:05:23.368Z,74194.91
2022-08-16T00:07:56.369Z,74209.16
2022-08-16T00:10:26.737Z,74227.50
2022-08-16T00:12:57.300Z,74243.81
2022-08-16T00:15:52.132Z,74256.03
2022-08-16T00:18:22.216Z,74274.38
2022-08-16T00:20:57.793Z,74296.78
2022-08-16T00:23:34.900Z,74317.16
2022-08-16T00:26:34.770Z,74337.53
2022-08-16T00:28:57.489Z,74339.59
2022-08-16T00:31:27.217Z,74349.78
2022-08-16T00:34:18.597Z,74364.03
2022-08-16T00:36:47.360Z,74366.06
2022-08-16T00:39:16.786Z,74382.38
2022-08-16T00:41:46.691Z,74384.41
2022-08-16T00:44:15.541Z,74390.53
2022-08-16T00:47:06.217Z,74390.53
2022-08-16T00:49:39.686Z,74394.59
2022-08-16T00:52:29.992Z,74398.69
2022-08-16T00:54:59.041Z,74400.72
2022-08-16T00:57:58.332Z,74402.75
2022-08-16T01:00:19.764Z,74406.81
2022-08-16T01:02:49.084Z,74417.00
2022-08-16T01:05:19.541Z,74414.97
2022-08-16T01:07:54.338Z,74410.91
2022-08-16T01:10:32.137Z,74410.91
2022-08-16T01:13:06.360Z,74419.06
2022-08-16T01:15:35.798Z,74425.16
2022-08-16T01:18:06.303Z,74425.16
2022-08-16T01:20:42.107Z,74421.09
2022-08-16T01:23:18.189Z,74427.22
2022-08-16T01:25:59.770Z,74425.16
2022-08-16T01:28:45.218Z,74419.06
2022-08-16T01:31:15.763Z,74427.22
2022-08-16T01:33:44.612Z,74427.22
2022-08-16T01:36:13.299Z,74435.34
2022-08-16T01:38:47.137Z,74443.50
2022-08-16T01:41:30.065Z,74451.66
2022-08-16T01:44:01.321Z,74455.72
2022-08-16T01:46:39.593Z,74451.66
2022-08-16T01:49:12.094Z,74451.66
2022-08-16T01:51:41.807Z,74451.66
2022-08-16T01:54:13.145Z,74449.63
2022-08-16T01:56:43.281Z,74441.47
2022-08-16T01:59:16.046Z,74439.44
2022-08-16T02:01:52.568Z,74443.50
2022-08-16T02:04:49.249Z,74435.34
2022-08-16T02:07:11.397Z,74435.34
2022-08-16T02:09:41.544Z,74441.47
2022-08-16T02:12:49.560Z,74439.44
2022-08-16T02:15:01.149Z,74439.44
2022-08-16T02:17:29.215Z,74451.66
2022-08-16T02:20:00.602Z,74451.66
2022-08-16T02:22:35.930Z,74455.72
2022-08-16T02:25:10.036Z,74455.72
2022-08-16T02:27:41.625Z,74449.63
2022-08-16T02:30:37.032Z,74449.63
2022-08-16T02:33:03.871Z,74449.63
2022-08-16T02:35:33.447Z,74451.66
2022-08-16T02:38:08.699Z,74451.66
2022-08-16T02:40:37.964Z,74453.69
2022-08-16T02:43:07.897Z,74443.50
2022-08-16T02:45:36.158Z,74439.44
2022-08-16T02:48:29.947Z,74439.44
2022-08-16T02:51:06.657Z,74427.22
2022-08-16T02:53:40.972Z,74429.25
2022-08-16T02:56:15.050Z,74425.16
2022-08-16T02:58:45.249Z,74421.09
2022-08-16T03:01:25.339Z,74427.22
2022-08-16T03:04:41.159Z,74427.22
2022-08-16T03:06:56.490Z,74427.22
2022-08-16T03:09:28.874Z,74431.28
2022-08-16T03:12:00.974Z,74435.34
2022-08-16T03:14:32.849Z,74435.34
2022-08-16T03:17:02.004Z,74439.44
2022-08-16T03:19:46.828Z,74443.50
2022-08-16T03:22:19.564Z,74447.59
2022-08-16T03:25:00.892Z,74447.59
2022-08-16T03:27:32.551Z,74447.59
2022-08-16T03:30:17.274Z,74449.63
2022-08-16T03:32:47.342Z,74451.66
2022-08-16T03:35:17.924Z,74451.66
2022-08-16T03:38:01.778Z,74455.72
2022-08-16T03:40:33.496Z,74455.72
2022-08-16T03:43:20.599Z,74459.81
2022-08-16T03:45:52.931Z,74459.81
2022-08-16T03:48:37.050Z,74463.88
2022-08-16T03:51:12.513Z,74463.88
2022-08-16T03:53:42.296Z,74465.91
2022-08-16T03:56:18.757Z,74474.06
2022-08-16T03:58:50.712Z,74476.13
2022-08-16T04:01:24.311Z,74476.13
2022-08-16T04:03:57.764Z,74476.13
2022-08-16T04:06:26.064Z,74480.19
2022-08-16T04:08:54.633Z,74484.25
2022-08-16T04:11:23.694Z,74484.25
2022-08-16T04:14:01.657Z,74488.34
2022-08-16T04:16:42.041Z,74490.38
2022-08-16T04:19:11.300Z,74490.38
2022-08-16T04:21:47.411Z,74496.50
2022-08-16T04:24:16.170Z,74496.50
2022-08-16T04:26:46.143Z,74500.56
2022-08-16T04:29:24.484Z,74502.59
2022-08-16T04:31:57.960Z,74500.56
2022-08-16T04:34:28.342Z,74500.56
2022-08-16T04:36:58.074Z,74500.56
2022-08-16T04:39:36.988Z,74500.56
2022-08-16T04:42:14.868Z,74488.34
2022-08-16T04:44:54.140Z,74480.19
2022-08-16T04:47:32.851Z,74480.19
2022-08-16T04:50:01.973Z,74474.06
2022-08-16T04:52:43.155Z,74467.97
2022-08-16T04:55:15.904Z,74463.88
2022-08-16T04:57:44.692Z,74459.81
2022-08-16T05:00:31.041Z,74463.88
2022-08-16T05:03:07.121Z,74472.03
2022-08-16T05:05:44.929Z,74465.91
2022-08-16T05:08:29.916Z,74465.91
2022-08-16T05:11:00.687Z,74465.91
2022-08-16T05:13:40.334Z,74474.06
2022-08-16T05:16:16.577Z,74467.97
2022-08-16T05:18:51.425Z,74465.91
2022-08-16T05:21:20.937Z,74467.97
2022-08-16T05:23:51.607Z,74467.97
2022-08-16T05:26:28.093Z,74478.16
2022-08-16T05:28:57.828Z,74472.03
2022-08-16T05:31:29.563Z,74474.06
2022-08-16T05:34:01.193Z,74476.13
2022-08-16T05:36:34.193Z,74472.03
2022-08-16T05:39:07.839Z,74470.00
2022-08-16T05:41:45.004Z,74463.88
2022-08-16T05:44:23.532Z,74463.88
2022-08-16T05:46:54.675Z,74455.72
2022-08-16T05:49:38.580Z,74463.88
2022-08-16T05:52:11.195Z,74451.66
2022-08-16T05:54:46.577Z,74449.63
2022-08-16T05:57:16.115Z,74451.66
2022-08-16T05:59:45.539Z,74441.47
2022-08-16T06:02:14.206Z,74435.34
2022-08-16T06:04:45.126Z,74433.31
2022-08-16T06:07:26.243Z,74423.13
2022-08-16T06:09:58.213Z,74421.09
2022-08-16T06:12:28.977Z,74423.13
2022-08-16T06:14:59.805Z,74427.22
2022-08-16T06:17:42.693Z,74419.06
2022-08-16T06:20:18.181Z,74398.69
2022-08-16T06:22:58.465Z,74378.28
2022-08-16T06:25:36.628Z,74370.16
2022-08-16T06:28:10.231Z,74349.78
2022-08-16T06:30:45.015Z,74337.53
2022-08-16T06:33:19.948Z,74319.19
2022-08-16T06:35:55.042Z,74304.94
2022-08-16T06:38:33.684Z,74300.88
2022-08-16T06:41:05.467Z,74292.72
2022-08-16T06:43:35.406Z,74264.19
2022-08-16T06:46:05.618Z,74256.03
2022-08-16T06:48:34.070Z,74256.03
2022-08-16T06:51:05.828Z,74247.88
2022-08-16T06:53:34.847Z,74245.84
2022-08-16T06:56:13.863Z,74235.66
2022-08-16T06:58:46.754Z,74229.53
2022-08-16T07:01:15.944Z,74207.13
2022-08-16T07:03:55.637Z,74178.59
2022-08-16T07:06:27.374Z,74158.22
2022-08-16T07:08:56.809Z,74166.38
2022-08-16T07:11:46.029Z,74162.31
2022-08-16T07:14:25.892Z,74166.38
2022-08-16T07:16:57.911Z,74168.41
2022-08-16T07:20:01.640Z,74162.31
2022-08-16T07:22:37.857Z,74154.16
2022-08-16T07:25:08.207Z,74154.16
2022-08-16T07:27:37.325Z,74154.16
2022-08-16T07:30:39.272Z,74129.69
2022-08-16T07:32:57.300Z,74113.41
2022-08-16T07:35:25.459Z,74093.03
2022-08-16T07:37:54.896Z,74074.69
2022-08-16T07:40:49.008Z,74064.50
2022-08-16T07:43:11.975Z,74056.34
2022-08-16T07:45:42.999Z,74048.19
2022-08-16T07:48:12.445Z,74042.09
2022-08-16T07:50:57.220Z,74040.03
2022-08-16T07:53:29.603Z,74048.19
2022-08-16T07:56:00.274Z,74050.22
2022-08-16T07:58:34.031Z,74052.28
2022-08-16T08:01:10.441Z,74048.19
2022-08-16T08:03:41.547Z,74040.03
2022-08-16T08:06:12.000Z,74040.03
2022-08-16T08:08:51.479Z,74040.03
2022-08-16T08:11:23.503Z,74056.34
2022-08-16T08:13:53.916Z,74050.22
2022-08-16T08:16:30.404Z,74027.81
2022-08-16T08:19:02.530Z,74003.38
2022-08-16T08:21:58.372Z,73970.78
2022-08-16T08:24:32.279Z,73974.84
2022-08-16T08:27:02.180Z,73987.06
2022-08-16T08:29:37.269Z,73983.00
2022-08-16T08:32:58.227Z,73978.91
2022-08-16T08:35:03.270Z,73962.63
2022-08-16T08:37:54.818Z,73946.31
2022-08-16T08:40:27.206Z,73938.16
2022-08-16T08:42:57.863Z,73942.25
2022-08-16T08:45:46.683Z,73921.88
2022-08-16T08:48:33.472Z,73881.13
2022-08-16T08:51:04.484Z,73866.84
2022-08-16T08:53:33.685Z,73848.50
2022-08-16T08:56:23.307Z,73834.25
2022-08-16T08:59:00.045Z,73877.03
2022-08-16T09:01:36.836Z,73897.41
2022-08-16T09:04:22.643Z,73909.66
2022-08-16T09:06:53.597Z,73895.38
2022-08-16T09:09:22.316Z,73897.41
2022-08-16T09:12:03.986Z,73877.03
2022-08-16T09:14:35.376Z,73842.41
2022-08-16T09:17:14.201Z,73850.56
2022-08-16T09:19:57.816Z,73826.09
2022-08-16T09:22:29.531Z,73844.44
2022-08-16T09:25:10.914Z,73830.19
2022-08-16T09:27:46.836Z,73820.00
2022-08-16T09:30:33.353Z,73791.47
2022-08-16T09:33:07.531Z,73797.59
2022-08-16T09:35:39.223Z,73779.25
2022-08-16T09:38:22.333Z,73836.28
2022-08-16T09:41:01.859Z,73832.22
2022-08-16T09:44:00.513Z,73791.47
2022-08-16T09:46:45.007Z,73787.41
2022-08-16T09:49:09.062Z,73767.03
2022-08-16T09:51:40.555Z,73714.03
2022-08-16T09:54:16.753Z,73691.63
2022-08-16T09:56:52.197Z,73677.38
2022-08-16T09:59:25.329Z,73691.63
2022-08-16T10:01:59.105Z,73673.31
2022-08-16T10:04:30.388Z,73618.28
2022-08-16T10:07:14.948Z,73628.47
2022-08-16T10:09:53.621Z,73608.09
2022-08-16T10:12:43.810Z,73591.81
2022-08-16T10:15:17.115Z,73591.81
2022-08-16T10:18:00.004Z,73557.16
2022-08-16T10:20:34.028Z,73551.06
2022-08-16T10:23:07.403Z,73571.44
2022-08-16T10:27:00.758Z,73542.91
2022-08-16T10:28:32.396Z,73542.91
2022-08-16T10:31:11.961Z,73528.66
2022-08-16T10:33:47.579Z,73434.94
2022-08-16T10:36:39.421Z,73365.69
2022-08-16T10:39:06.000Z,73388.09
2022-08-16T10:41:36.759Z,73402.34
2022-08-16T10:44:05.375Z,73384.00
2022-08-16T10:46:41.478Z,73373.81
2022-08-16T10:49:12.444Z,73412.53
2022-08-16T10:52:01.069Z,73420.69
2022-08-16T10:54:30.205Z,73441.06
2022-08-16T10:56:59.436Z,73416.59
2022-08-16T10:59:38.326Z,73318.81
2022-08-16T11:02:57.955Z,73314.75
2022-08-16T11:05:14.099Z,73329.00
2022-08-16T11:07:45.415Z,73381.97
2022-08-16T11:19:04.192Z,73208.81
2022-08-16T11:21:33.609Z,73190.47
2022-08-16T11:24:03.260Z,73184.38
2022-08-16T11:29:41.944Z,73086.59
2022-08-16T11:32:11.042Z,73088.63
2022-08-16T11:35:05.968Z,73098.81
2022-08-16T11:38:04.545Z,73078.44
2022-08-16T11:40:19.700Z,73078.44
2022-08-16T11:43:01.415Z,73125.28
2022-08-16T11:45:33.737Z,73225.13
2022-08-16T11:48:03.668Z,73233.25
2022-08-16T11:50:33.837Z,73161.97
2022-08-16T11:53:03.760Z,73115.13
2022-08-16T11:55:32.975Z,73157.88
2022-08-16T11:58:01.282Z,73121.22
2022-08-16T12:00:33.882Z,73111.03
2022-08-16T12:03:24.981Z,73070.28
2022-08-16T12:06:03.009Z,73078.44
2022-08-16T12:08:32.551Z,73070.28
2022-08-16T12:11:02.403Z,73090.66
2022-08-16T12:13:30.732Z,73076.41
2022-08-16T12:15:59.069Z,73068.25
2022-08-16T12:18:27.207Z,73078.44
2022-08-16T12:20:55.463Z,73102.88
2022-08-16T12:23:28.465Z,73137.53
2022-08-16T12:25:59.742Z,73111.03
2022-08-16T12:28:54.110Z,73129.38
2022-08-16T12:31:16.108Z,73094.75
2022-08-16T12:33:45.187Z,73066.22
2022-08-16T12:36:14.088Z,73015.31
2022-08-16T12:38:48.389Z,73013.25
2022-08-16T12:41:25.215Z,72986.78
2022-08-16T12:43:57.117Z,72958.25
2022-08-16T12:46:31.004Z,72964.38
2022-08-16T12:48:58.886Z,73025.47
2022-08-16T12:51:33.053Z,73035.66
2022-08-16T12:54:23.566Z,73102.88
2022-08-16T12:56:52.008Z,73100.84
2022-08-16T12:59:21.879Z,73102.88
2022-08-16T13:01:58.028Z,73109.00
2022-08-16T13:04:33.169Z,73106.97
2022-08-16T13:09:42.098Z,73070.28
2022-08-16T13:12:19.877Z,73076.41
2022-08-16T13:14:50.019Z,73062.16
2022-08-16T13:17:21.409Z,73082.53
2022-08-16T13:20:09.316Z,73070.28
2022-08-16T13:22:42.482Z,73047.88
2022-08-16T13:25:19.459Z,73033.63
2022-08-16T13:28:02.746Z,73019.38
2022-08-16T13:30:37.391Z,72974.56
2022-08-16T13:33:13.153Z,72968.44
2022-08-16T13:35:45.499Z,72968.44
2022-08-16T13:38:25.204Z,72960.31
2022-08-16T13:40:57.446Z,72972.53
2022-08-16T13:43:26.962Z,72960.31
2022-08-16T13:45:57.755Z,72976.59
2022-08-16T13:48:26.534Z,72968.44
2022-08-16T13:51:15.790Z,73007.16
2022-08-16T13:53:45.890Z,72984.75
2022-08-16T13:56:25.848Z,72976.59
2022-08-16T13:59:02.384Z,72952.16
2022-08-16T14:01:31.115Z,72939.94
2022-08-16T14:04:05.404Z,72933.81
2022-08-16T14:06:33.597Z,72960.31
2022-08-16T14:09:06.945Z,72968.44
2022-08-16T14:11:36.717Z,72984.75
2022-08-16T14:14:05.937Z,73009.19
2022-08-16T14:16:35.287Z,73005.13
2022-08-16T14:19:04.247Z,73021.41
2022-08-16T14:21:35.187Z,73013.25
2022-08-16T14:24:12.789Z,72984.75
2022-08-16T14:26:52.964Z,72966.41
2022-08-16T14:29:22.064Z,72984.75
2022-08-16T14:31:54.173Z,72978.63
2022-08-16T14:34:25.643Z,72992.91
2022-08-16T14:36:53.968Z,72988.81
2022-08-16T14:39:23.176Z,72970.50
2022-08-16T14:41:53.682Z,72992.91
2022-08-16T14:44:26.219Z,73001.03
2022-08-16T14:46:56.401Z,73021.41
2022-08-16T14:49:25.060Z,73015.31
2022-08-16T14:51:53.063Z,72996.97
2022-08-16T14:54:21.817Z,73005.13
2022-08-16T14:56:55.031Z,72978.63
2022-08-16T14:59:25.824Z,73029.56
2022-08-16T15:01:59.234Z,73056.03
2022-08-16T15:04:32.336Z,73049.94
2022-08-16T15:07:11.289Z,73062.16
2022-08-16T15:09:59.933Z,73049.94
2022-08-16T15:12:33.489Z,73068.25
2022-08-16T15:15:12.381Z,73047.88
2022-08-16T15:17:42.111Z,73047.88
2022-08-16T15:20:26.207Z,73041.78
2022-08-16T15:22:55.800Z,73045.84
2022-08-16T15:25:27.515Z,73041.78
2022-08-16T15:27:57.427Z,73082.53
2022-08-16T15:30:57.243Z,73039.75
2022-08-16T15:33:17.481Z,73098.81
2022-08-16T15:35:47.300Z,73086.59
2022-08-16T15:38:57.089Z,73088.63
2022-08-16T15:41:05.387Z,73060.13
2022-08-16T15:43:39.396Z,73072.34
2022-08-16T15:46:35.560Z,73070.28
2022-08-16T15:49:14.471Z,73056.03
2022-08-16T15:51:44.930Z,73058.06
2022-08-16T15:54:21.643Z,73084.56
2022-08-16T15:57:07.250Z,73086.59
2022-08-16T15:59:48.870Z,73119.19
2022-08-16T16:02:27.453Z,73129.38
2022-08-16T16:04:56.172Z,73115.13
2022-08-16T16:07:24.371Z,73106.97
2022-08-16T16:09:53.349Z,73127.34
2022-08-16T16:12:53.438Z,73119.19
2022-08-16T16:15:09.766Z,73117.16
2022-08-16T16:17:39.097Z,73123.25
2022-08-16T16:20:14.913Z,73135.47
2022-08-16T16:22:43.471Z,73145.66
2022-08-16T16:25:11.827Z,73147.72
2022-08-16T16:27:40.785Z,73186.41
2022-08-16T16:30:33.212Z,73168.06
2022-08-16T16:32:59.788Z,73155.84
2022-08-16T16:35:32.932Z,73153.81
2022-08-16T16:38:01.243Z,73168.06
2022-08-16T16:40:46.339Z,73157.88
2022-08-16T16:43:16.151Z,73155.84
2022-08-16T16:45:45.227Z,73151.78
2022-08-16T16:48:14.761Z,73168.06
2022-08-16T16:50:46.450Z,73174.19
2022-08-16T16:53:17.630Z,73176.22
2022-08-16T16:55:52.086Z,73192.53
2022-08-16T16:58:39.009Z,73202.69
2022-08-16T17:01:12.735Z,73216.97
2022-08-16T17:03:43.375Z,73214.94
2022-08-16T17:06:21.838Z,73237.34
2022-08-16T17:08:52.144Z,73255.66
2022-08-16T17:11:20.103Z,73278.06
2022-08-16T17:13:48.969Z,73274.00
2022-08-16T17:16:19.038Z,73286.22
2022-08-16T17:19:16.334Z,73302.53
2022-08-16T17:21:40.083Z,73335.13
2022-08-16T17:24:17.958Z,73335.13
2022-08-16T17:26:48.991Z,73355.50
2022-08-16T17:29:17.326Z,73371.78
2022-08-16T17:31:49.508Z,73390.13
2022-08-16T17:34:30.343Z,73430.88
2022-08-16T17:37:00.621Z,73459.38
2022-08-16T17:39:33.455Z,73475.69
2022-08-16T17:42:03.831Z,73485.88
2022-08-16T17:44:32.277Z,73506.25
2022-08-16T17:47:00.173Z,73518.47
2022-08-16T17:49:29.740Z,73536.81
2022-08-16T17:51:57.655Z,73559.22
2022-08-16T17:54:30.617Z,73569.41
2022-08-16T17:57:00.761Z,73604.03
2022-08-16T17:59:29.347Z,73616.25
2022-08-16T18:01:57.777Z,73630.53
2022-08-16T18:04:48.236Z,73648.84
2022-08-16T18:07:15.638Z,73652.94
2022-08-16T18:09:43.831Z,73663.13
2022-08-16T18:12:23.984Z,73667.19
2022-08-16T18:15:03.491Z,73693.69
2022-08-16T18:17:31.998Z,73705.91
2022-08-16T18:20:00.047Z,73734.41
2022-08-16T18:22:31.660Z,73754.78
2022-08-16T18:24:59.848Z,73779.25
2022-08-16T18:27:29.777Z,73803.69
2022-08-16T18:29:57.910Z,73811.84
2022-08-16T18:32:25.800Z,73832.22
2022-08-16T18:34:54.193Z,73844.44
2022-08-16T18:37:22.644Z,73858.72
2022-08-16T18:39:52.182Z,73875.00
2022-08-16T18:42:20.938Z,73883.16
2022-08-16T18:44:49.074Z,73897.41
2022-08-16T18:47:16.915Z,73913.72
2022-08-16T18:49:45.072Z,73913.72
2022-08-16T18:52:25.200Z,73919.84
2022-08-16T18:55:02.920Z,73930.00
2022-08-16T18:57:42.834Z,73942.25
2022-08-16T19:00:12.511Z,73934.09
2022-08-16T19:02:55.993Z,73940.22
2022-08-16T19:05:29.222Z,73954.47
2022-08-16T19:07:57.214Z,73970.78
2022-08-16T19:10:26.481Z,73987.06
2022-08-16T19:12:54.911Z,73997.25
2022-08-16T19:15:25.947Z,74011.53
2022-08-16T19:17:54.772Z,74013.56
2022-08-16T19:20:25.135Z,74027.81
2022-08-16T19:23:11.005Z,74029.84
2022-08-16T19:25:46.732Z,74040.03
2022-08-16T19:28:50.044Z,74064.50
2022-08-16T19:31:09.232Z,74076.72
2022-08-16T19:33:38.034Z,74093.03
2022-08-16T19:36:06.712Z,74105.25
2022-08-16T19:38:36.209Z,74101.16
2022-08-16T19:41:06.418Z,74113.41
2022-08-16T19:43:34.385Z,74117.47
2022-08-16T19:46:02.659Z,74125.63
2022-08-16T19:48:30.646Z,74141.94
2022-08-16T19:50:58.558Z,74152.13
2022-08-16T19:53:27.666Z,74150.06
2022-08-16T19:55:55.581Z,74164.34
2022-08-16T19:58:24.842Z,74172.50
2022-08-16T20:00:56.384Z,74170.44
2022-08-16T20:03:25.327Z,74182.69
2022-08-16T20:05:53.786Z,74186.75
2022-08-16T20:08:22.275Z,74194.91
2022-08-16T20:10:51.213Z,74198.97
2022-08-16T20:13:21.800Z,74215.28
2022-08-16T20:15:51.704Z,74237.69
2022-08-16T20:18:24.648Z,74249.91
2022-08-16T20:20:55.312Z,74251.97
2022-08-16T20:23:25.596Z,74249.91
2022-08-16T20:25:55.633Z,74243.81
2022-08-16T20:28:51.651Z,74251.97
2022-08-16T20:31:13.858Z,74260.09
2022-08-16T20:33:42.195Z,74268.25
2022-08-16T20:36:16.030Z,74288.63
2022-08-16T20:38:46.901Z,74306.97
2022-08-16T20:41:15.617Z,74313.09
2022-08-16T20:43:43.678Z,74321.25
2022-08-16T20:46:15.519Z,74329.38
2022-08-16T20:48:43.898Z,74321.25
2022-08-16T20:51:12.762Z,74323.28
2022-08-16T20:53:41.893Z,74337.53
2022-08-16T20:56:12.805Z,74351.81
2022-08-16T20:58:41.020Z,74353.84
2022-08-16T21:01:09.776Z,74357.91
2022-08-16T21:03:39.419Z,74366.06
2022-08-16T21:06:08.127Z,74370.16
2022-08-16T21:08:51.731Z,74380.34
2022-08-16T21:11:23.614Z,74386.44
2022-08-16T21:13:52.406Z,74390.53
2022-08-16T21:16:28.584Z,74394.59
2022-08-16T21:18:58.183Z,74410.91
2022-08-16T21:21:31.974Z,74423.13
2022-08-16T21:24:01.578Z,74429.25
2022-08-16T21:26:29.883Z,74453.69
2022-08-16T21:28:57.795Z,74465.91
2022-08-16T21:31:25.680Z,74467.97
2022-08-16T21:33:55.212Z,74455.72
2022-08-16T21:36:34.911Z,74457.78
2022-08-16T21:39:05.411Z,74455.72
2022-08-16T21:41:33.304Z,74476.13
2022-08-16T21:44:01.293Z,74488.34
2022-08-16T21:46:29.489Z,74504.63
2022-08-16T21:48:57.354Z,74516.88
2022-08-16T21:51:26.573Z,74525.03
2022-08-16T21:53:54.734Z,74529.09
2022-08-16T21:56:23.112Z,74525.03
2022-08-16T21:58:53.187Z,74522.97
2022-08-16T22:01:23.784Z,74529.09
2022-08-16T22:04:36.015Z,74525.03
2022-08-16T22:06:43.829Z,74545.41
2022-08-16T22:09:15.154Z,74561.69
2022-08-16T22:11:44.531Z,74561.69
2022-08-16T22:14:12.794Z,74561.69
2022-08-16T22:16:42.301Z,74559.66
2022-08-16T22:19:11.560Z,74557.63
2022-08-16T22:21:39.444Z,74557.63
2022-08-16T22:24:09.092Z,74557.63
2022-08-16T22:26:42.871Z,74563.75
2022-08-16T22:29:13.712Z,74573.94
2022-08-16T22:31:43.245Z,74590.22
2022-08-16T22:34:11.240Z,74590.22
2022-08-16T22:36:39.969Z,74590.22
2022-08-16T22:39:12.048Z,74604.50
2022-08-16T22:41:42.121Z,74602.47
2022-08-16T22:44:10.560Z,74606.53
2022-08-16T22:46:38.660Z,74608.56
2022-08-16T22:49:07.785Z,74606.53
2022-08-16T22:51:37.335Z,74602.47
2022-08-16T22:54:45.761Z,74602.47
2022-08-16T22:56:57.336Z,74620.81
2022-08-16T22:59:25.986Z,74633.03
2022-08-16T23:01:54.006Z,74633.03
2022-08-16T23:04:22.555Z,74631.00
2022-08-16T23:06:50.616Z,74626.91
2022-08-16T23:09:18.727Z,74620.81
2022-08-16T23:11:46.878Z,74618.75
2022-08-16T23:14:16.572Z,74635.06
2022-08-16T23:16:47.051Z,74655.44
2022-08-16T23:19:17.004Z,74665.63
2022-08-16T23:21:48.899Z,74679.91
2022-08-16T23:24:20.462Z,74675.81
2022-08-16T23:26:49.498Z,74675.81
2022-08-16T23:29:24.368Z,74677.88
2022-08-16T23:31:56.694Z,74667.69
2022-08-16T23:34:26.782Z,74659.53
2022-08-16T23:36:54.864Z,74655.44
2022-08-16T23:39:23.241Z,74659.53
2022-08-16T23:41:51.948Z,74653.41
2022-08-16T23:44:55.823Z,74657.47
2022-08-16T23:47:09.632Z,74669.72
2022-08-16T23:50:01.794Z,74677.88
2022-08-16T23:52:53.247Z,74700.28
2022-08-16T23:55:16.376Z,74708.44
2022-08-16T23:57:46.192Z,74712.50
